sensor_id;sensor_type;location;lat;lon;timestamp;pressure;altitude;pressure_sealevel;temperature;humidity
76726;BME280;65651;53.154;17.916;2023-04-03T00:01:22;102158.27;;;-0.72;70.19
76726;BME280;65651;53.154;17.916;2023-04-03T00:03:49;102158.82;;;-0.74;70.12
76726;BME280;65651;53.154;17.916;2023-04-03T00:06:17;102157.83;;;-0.76;69.99
76726;BME280;65651;53.154;17.916;2023-04-03T00:08:44;102160.55;;;-0.79;70.19
76726;BME280;65651;53.154;17.916;2023-04-03T00:11:11;102159.69;;;-0.82;70.28
76726;BME280;65651;53.154;17.916;2023-04-03T00:13:39;102156.23;;;-0.84;70.30
76726;BME280;65651;53.154;17.916;2023-04-03T00:16:11;102159.61;;;-0.85;70.21
76726;BME280;65651;53.154;17.916;2023-04-03T00:18:39;102158.93;;;-0.87;70.37
76726;BME280;65651;53.154;17.916;2023-04-03T00:21:08;102154.44;;;-0.90;70.48
76726;BME280;65651;53.154;17.916;2023-04-03T00:23:37;102152.72;;;-0.92;70.35
76726;BME280;65651;53.154;17.916;2023-04-03T00:26:04;102153.16;;;-0.96;70.52
76726;BME280;65651;53.154;17.916;2023-04-03T00:28:31;102152.52;;;-0.99;70.70
76726;BME280;65651;53.154;17.916;2023-04-03T00:30:59;102154.54;;;-1.02;70.76
76726;BME280;65651;53.154;17.916;2023-04-03T00:33:26;102152.45;;;-1.04;70.87
76726;BME280;65651;53.154;17.916;2023-04-03T00:35:54;102153.23;;;-1.07;70.85
76726;BME280;65651;53.154;17.916;2023-04-03T00:38:21;102152.92;;;-1.09;70.94
76726;BME280;65651;53.154;17.916;2023-04-03T00:40:49;102150.84;;;-1.11;70.98
76726;BME280;65651;53.154;17.916;2023-04-03T00:43:20;102152.64;;;-1.13;70.98
76726;BME280;65651;53.154;17.916;2023-04-03T00:45:52;102148.84;;;-1.16;71.14
76726;BME280;65651;53.154;17.916;2023-04-03T00:48:24;102153.65;;;-1.18;71.12
76726;BME280;65651;53.154;17.916;2023-04-03T00:50:53;102151.91;;;-1.20;71.14
76726;BME280;65651;53.154;17.916;2023-04-03T00:53:59;102152.28;;;-1.20;71.28
76726;BME280;65651;53.154;17.916;2023-04-03T00:56:29;102154.25;;;-1.21;71.59
76726;BME280;65651;53.154;17.916;2023-04-03T00:59:04;102154.95;;;-1.21;71.43
76726;BME280;65651;53.154;17.916;2023-04-03T01:01:33;102152.48;;;-1.21;71.68
76726;BME280;65651;53.154;17.916;2023-04-03T01:04:01;102156.52;;;-1.20;71.73
76726;BME280;65651;53.154;17.916;2023-04-03T01:06:35;102152.63;;;-1.20;71.65
76726;BME280;65651;53.154;17.916;2023-04-03T01:09:12;102151.40;;;-1.20;71.64
76726;BME280;65651;53.154;17.916;2023-04-03T01:11:39;102149.83;;;-1.20;71.83
76726;BME280;65651;53.154;17.916;2023-04-03T01:14:07;102152.59;;;-1.18;71.95
76726;BME280;65651;53.154;17.916;2023-04-03T01:16:34;102155.19;;;-1.16;71.90
76726;BME280;65651;53.154;17.916;2023-04-03T01:19:03;102155.81;;;-1.13;71.96
76726;BME280;65651;53.154;17.916;2023-04-03T01:24:37;102161.41;;;-1.10;72.10
76726;BME280;65651;53.154;17.916;2023-04-03T01:27:10;102162.95;;;-1.08;72.04
76726;BME280;65651;53.154;17.916;2023-04-03T01:29:37;102161.34;;;-1.07;72.18
76726;BME280;65651;53.154;17.916;2023-04-03T01:32:06;102163.47;;;-1.07;72.28
76726;BME280;65651;53.154;17.916;2023-04-03T01:34:33;102164.72;;;-1.09;72.31
76726;BME280;65651;53.154;17.916;2023-04-03T01:37:01;102166.11;;;-1.08;72.26
76726;BME280;65651;53.154;17.916;2023-04-03T01:39:28;102166.14;;;-1.09;72.34
76726;BME280;65651;53.154;17.916;2023-04-03T01:41:58;102169.69;;;-1.10;72.28
76726;BME280;65651;53.154;17.916;2023-04-03T01:44:35;102169.69;;;-1.10;72.48
76726;BME280;65651;53.154;17.916;2023-04-03T01:47:06;102168.46;;;-1.12;72.40
76726;BME280;65651;53.154;17.916;2023-04-03T01:49:34;102170.08;;;-1.12;72.53
76726;BME280;65651;53.154;17.916;2023-04-03T01:52:02;102172.25;;;-1.15;72.46
76726;BME280;65651;53.154;17.916;2023-04-03T01:54:29;102171.58;;;-1.16;72.65
76726;BME280;65651;53.154;17.916;2023-04-03T01:56:56;102172.14;;;-1.18;72.60
76726;BME280;65651;53.154;17.916;2023-04-03T01:59:24;102171.67;;;-1.21;72.70
76726;BME280;65651;53.154;17.916;2023-04-03T02:01:51;102173.65;;;-1.23;72.66
76726;BME280;65651;53.154;17.916;2023-04-03T02:04:18;102173.16;;;-1.25;72.74
76726;BME280;65651;53.154;17.916;2023-04-03T02:06:46;102170.60;;;-1.28;72.91
76726;BME280;65651;53.154;17.916;2023-04-03T02:09:13;102171.33;;;-1.29;73.21
76726;BME280;65651;53.154;17.916;2023-04-03T02:11:41;102174.86;;;-1.30;73.06
76726;BME280;65651;53.154;17.916;2023-04-03T02:14:08;102174.43;;;-1.34;73.04
76726;BME280;65651;53.154;17.916;2023-04-03T02:16:35;102176.04;;;-1.36;73.25
76726;BME280;65651;53.154;17.916;2023-04-03T02:19:03;102178.02;;;-1.38;73.12
76726;BME280;65651;53.154;17.916;2023-04-03T02:21:33;102176.14;;;-1.40;73.25
76726;BME280;65651;53.154;17.916;2023-04-03T02:24:00;102171.95;;;-1.43;73.33
76726;BME280;65651;53.154;17.916;2023-04-03T02:26:28;102176.89;;;-1.43;73.37
76726;BME280;65651;53.154;17.916;2023-04-03T02:28:55;102179.56;;;-1.44;73.18
76726;BME280;65651;53.154;17.916;2023-04-03T02:31:22;102180.46;;;-1.45;73.47
76726;BME280;65651;53.154;17.916;2023-04-03T02:33:51;102181.56;;;-1.47;73.53
76726;BME280;65651;53.154;17.916;2023-04-03T02:36:19;102182.99;;;-1.49;73.67
76726;BME280;65651;53.154;17.916;2023-04-03T02:38:51;102184.59;;;-1.49;73.65
76726;BME280;65651;53.154;17.916;2023-04-03T02:41:18;102190.77;;;-1.50;73.71
76726;BME280;65651;53.154;17.916;2023-04-03T02:43:45;102191.70;;;-1.52;73.74
76726;BME280;65651;53.154;17.916;2023-04-03T02:46:15;102198.06;;;-1.53;73.55
76726;BME280;65651;53.154;17.916;2023-04-03T02:48:43;102196.30;;;-1.54;73.57
76726;BME280;65651;53.154;17.916;2023-04-03T02:51:10;102197.01;;;-1.54;73.90
76726;BME280;65651;53.154;17.916;2023-04-03T02:53:38;102198.77;;;-1.54;73.65
76726;BME280;65651;53.154;17.916;2023-04-03T02:56:10;102203.01;;;-1.55;73.77
76726;BME280;65651;53.154;17.916;2023-04-03T02:58:37;102208.33;;;-1.56;73.86
76726;BME280;65651;53.154;17.916;2023-04-03T03:01:06;102210.13;;;-1.58;73.75
76726;BME280;65651;53.154;17.916;2023-04-03T03:03:33;102208.39;;;-1.58;73.98
76726;BME280;65651;53.154;17.916;2023-04-03T03:06:08;102209.98;;;-1.59;73.98
76726;BME280;65651;53.154;17.916;2023-04-03T03:08:37;102209.45;;;-1.61;74.02
76726;BME280;65651;53.154;17.916;2023-04-03T03:11:05;102211.23;;;-1.61;74.11
76726;BME280;65651;53.154;17.916;2023-04-03T03:13:33;102211.59;;;-1.62;74.10
76726;BME280;65651;53.154;17.916;2023-04-03T03:16:02;102213.04;;;-1.63;74.06
76726;BME280;65651;53.154;17.916;2023-04-03T03:18:29;102213.40;;;-1.65;74.31
76726;BME280;65651;53.154;17.916;2023-04-03T03:20:59;102215.33;;;-1.64;74.22
76726;BME280;65651;53.154;17.916;2023-04-03T03:23:28;102218.84;;;-1.63;74.18
76726;BME280;65651;53.154;17.916;2023-04-03T03:26:01;102216.55;;;-1.63;74.27
76726;BME280;65651;53.154;17.916;2023-04-03T03:28:29;102218.63;;;-1.61;74.33
76726;BME280;65651;53.154;17.916;2023-04-03T03:30:58;102221.08;;;-1.61;74.33
76726;BME280;65651;53.154;17.916;2023-04-03T03:33:26;102223.54;;;-1.60;74.17
76726;BME280;65651;53.154;17.916;2023-04-03T03:35:54;102221.06;;;-1.60;74.36
76726;BME280;65651;53.154;17.916;2023-04-03T03:38:22;102222.11;;;-1.59;74.29
76726;BME280;65651;53.154;17.916;2023-04-03T03:40:50;102222.65;;;-1.60;74.47
76726;BME280;65651;53.154;17.916;2023-04-03T03:43:20;102226.54;;;-1.61;74.52
76726;BME280;65651;53.154;17.916;2023-04-03T03:45:52;102230.27;;;-1.62;74.50
76726;BME280;65651;53.154;17.916;2023-04-03T03:48:20;102229.92;;;-1.63;74.57
76726;BME280;65651;53.154;17.916;2023-04-03T03:50:48;102231.70;;;-1.64;74.59
76726;BME280;65651;53.154;17.916;2023-04-03T03:53:16;102233.66;;;-1.64;74.44
76726;BME280;65651;53.154;17.916;2023-04-03T03:55:44;102234.56;;;-1.65;74.59
76726;BME280;65651;53.154;17.916;2023-04-03T03:58:11;102234.55;;;-1.65;74.70
76726;BME280;65651;53.154;17.916;2023-04-03T04:00:39;102241.77;;;-1.65;74.60
76726;BME280;65651;53.154;17.916;2023-04-03T04:03:06;102245.13;;;-1.66;74.78
76726;BME280;65651;53.154;17.916;2023-04-03T04:05:34;102241.96;;;-1.67;74.73
76726;BME280;65651;53.154;17.916;2023-04-03T04:08:01;102240.77;;;-1.68;74.83
76726;BME280;65651;53.154;17.916;2023-04-03T04:10:29;102242.90;;;-1.69;74.78
76726;BME280;65651;53.154;17.916;2023-04-03T04:12:56;102245.85;;;-1.67;74.90
76726;BME280;65651;53.154;17.916;2023-04-03T04:15:24;102249.38;;;-1.68;74.86
76726;BME280;65651;53.154;17.916;2023-04-03T04:17:53;102250.77;;;-1.67;74.88
76726;BME280;65651;53.154;17.916;2023-04-03T04:20:21;102255.52;;;-1.67;74.74
76726;BME280;65651;53.154;17.916;2023-04-03T04:22:48;102258.50;;;-1.66;74.85
76726;BME280;65651;53.154;17.916;2023-04-03T04:25:16;102264.28;;;-1.64;74.89
76726;BME280;65651;53.154;17.916;2023-04-03T04:27:43;102263.01;;;-1.62;75.20
76726;BME280;65651;53.154;17.916;2023-04-03T04:30:12;102262.80;;;-1.61;75.08
76726;BME280;65651;53.154;17.916;2023-04-03T04:32:40;102259.24;;;-1.58;75.11
76726;BME280;65651;53.154;17.916;2023-04-03T04:35:08;102264.27;;;-1.54;75.06
76726;BME280;65651;53.154;17.916;2023-04-03T04:37:36;102261.77;;;-1.52;75.05
76726;BME280;65651;53.154;17.916;2023-04-03T04:40:04;102262.57;;;-1.48;74.99
76726;BME280;65651;53.154;17.916;2023-04-03T04:42:32;102261.27;;;-1.44;75.12
76726;BME280;65651;53.154;17.916;2023-04-03T04:44:59;102262.95;;;-1.40;75.00
76726;BME280;65651;53.154;17.916;2023-04-03T04:47:29;102266.38;;;-1.35;75.04
76726;BME280;65651;53.154;17.916;2023-04-03T04:49:56;102269.31;;;-1.31;74.98
76726;BME280;65651;53.154;17.916;2023-04-03T04:52:24;102268.38;;;-1.29;74.93
76726;BME280;65651;53.154;17.916;2023-04-03T04:54:54;102271.49;;;-1.26;75.10
76726;BME280;65651;53.154;17.916;2023-04-03T04:57:22;102272.45;;;-1.21;74.91
76726;BME280;65651;53.154;17.916;2023-04-03T04:59:49;102271.31;;;-1.17;75.04
76726;BME280;65651;53.154;17.916;2023-04-03T05:02:17;102276.30;;;-1.11;74.90
76726;BME280;65651;53.154;17.916;2023-04-03T05:04:44;102275.90;;;-0.91;74.81
76726;BME280;65651;53.154;17.916;2023-04-03T05:07:16;102280.77;;;0.24;74.32
76726;BME280;65651;53.154;17.916;2023-04-03T05:09:43;102273.74;;;1.99;73.09
76726;BME280;65651;53.154;17.916;2023-04-03T05:12:11;102277.48;;;3.62;71.97
76726;BME280;65651;53.154;17.916;2023-04-03T05:14:43;102275.33;;;5.01;70.61
76726;BME280;65651;53.154;17.916;2023-04-03T05:17:12;102274.22;;;5.93;69.82
76726;BME280;65651;53.154;17.916;2023-04-03T05:19:45;102278.73;;;5.54;70.08
76726;BME280;65651;53.154;17.916;2023-04-03T05:22:13;102283.81;;;4.86;70.07
76726;BME280;65651;53.154;17.916;2023-04-03T05:24:40;102282.63;;;4.48;70.04
76726;BME280;65651;53.154;17.916;2023-04-03T05:27:10;102282.92;;;4.37;69.48
76726;BME280;65651;53.154;17.916;2023-04-03T05:29:39;102278.43;;;5.41;68.10
76726;BME280;65651;53.154;17.916;2023-04-03T05:32:11;102273.38;;;6.96;66.34
76726;BME280;65651;53.154;17.916;2023-04-03T05:34:39;102272.91;;;7.38;66.37
76726;BME280;65651;53.154;17.916;2023-04-03T05:37:06;102276.52;;;7.97;65.75
76726;BME280;65651;53.154;17.916;2023-04-03T05:39:34;102272.68;;;9.45;64.54
76726;BME280;65651;53.154;17.916;2023-04-03T05:42:04;102267.66;;;10.95;63.22
76726;BME280;65651;53.154;17.916;2023-04-03T05:44:31;102269.57;;;12.03;62.44
76726;BME280;65651;53.154;17.916;2023-04-03T05:47:01;102266.89;;;13.06;61.12
76726;BME280;65651;53.154;17.916;2023-04-03T05:49:29;102265.15;;;13.81;59.83
76726;BME280;65651;53.154;17.916;2023-04-03T05:51:56;102261.50;;;14.92;59.13
76726;BME280;65651;53.154;17.916;2023-04-03T05:54:28;102264.10;;;15.97;57.84
76726;BME280;65651;53.154;17.916;2023-04-03T05:57:04;102261.06;;;16.53;55.77
76726;BME280;65651;53.154;17.916;2023-04-03T05:59:32;102265.66;;;14.91;56.68
76726;BME280;65651;53.154;17.916;2023-04-03T06:01:59;102272.20;;;12.72;54.87
76726;BME280;65651;53.154;17.916;2023-04-03T06:04:30;102278.98;;;10.59;55.22
76726;BME280;65651;53.154;17.916;2023-04-03T06:06:58;102277.60;;;9.16;55.64
76726;BME280;65651;53.154;17.916;2023-04-03T06:09:28;102285.27;;;8.19;55.43
76726;BME280;65651;53.154;17.916;2023-04-03T06:12:00;102287.84;;;7.36;55.18
76726;BME280;65651;53.154;17.916;2023-04-03T06:14:29;102283.44;;;6.68;55.43
76726;BME280;65651;53.154;17.916;2023-04-03T06:16:57;102285.45;;;7.45;55.18
76726;BME280;65651;53.154;17.916;2023-04-03T06:19:27;102281.73;;;10.15;52.94
76726;BME280;65651;53.154;17.916;2023-04-03T06:22:03;102279.68;;;10.76;52.33
76726;BME280;65651;53.154;17.916;2023-04-03T06:24:32;102279.08;;;11.47;52.22
76726;BME280;65651;53.154;17.916;2023-04-03T06:27:05;102287.98;;;12.71;50.88
76726;BME280;65651;53.154;17.916;2023-04-03T06:29:33;102280.78;;;14.29;48.13
76726;BME280;65651;53.154;17.916;2023-04-03T06:32:04;102278.10;;;15.82;47.20
76726;BME280;65651;53.154;17.916;2023-04-03T06:34:31;102282.06;;;17.41;44.78
76726;BME280;65651;53.154;17.916;2023-04-03T06:36:59;102277.25;;;18.66;42.90
76726;BME280;65651;53.154;17.916;2023-04-03T06:39:26;102278.80;;;19.38;40.80
76726;BME280;65651;53.154;17.916;2023-04-03T06:41:54;102286.30;;;20.27;40.14
76726;BME280;65651;53.154;17.916;2023-04-03T06:44:29;102279.80;;;21.52;38.42
76726;BME280;65651;53.154;17.916;2023-04-03T06:46:56;102282.84;;;22.20;36.13
76726;BME280;65651;53.154;17.916;2023-04-03T06:49:24;102283.08;;;21.31;34.67
76726;BME280;65651;53.154;17.916;2023-04-03T06:51:52;102289.36;;;18.10;34.37
76726;BME280;65651;53.154;17.916;2023-04-03T06:54:23;102294.90;;;15.04;33.67
76726;BME280;65651;53.154;17.916;2023-04-03T06:56:51;102304.37;;;14.58;33.38
76726;BME280;65651;53.154;17.916;2023-04-03T06:59:18;102309.55;;;14.40;32.74
76726;BME280;65651;53.154;17.916;2023-04-03T07:01:46;102312.83;;;12.16;33.64
76726;BME280;65651;53.154;17.916;2023-04-03T07:04:17;102317.48;;;10.74;34.35
76726;BME280;65651;53.154;17.916;2023-04-03T07:06:47;102322.73;;;10.29;34.96
76726;BME280;65651;53.154;17.916;2023-04-03T07:09:15;102329.72;;;10.01;35.12
76726;BME280;65651;53.154;17.916;2023-04-03T07:11:42;102324.90;;;11.60;34.04
76726;BME280;65651;53.154;17.916;2023-04-03T07:14:10;102318.89;;;12.93;34.00
76726;BME280;65651;53.154;17.916;2023-04-03T07:16:37;102329.66;;;13.38;33.67
76726;BME280;65651;53.154;17.916;2023-04-03T07:19:05;102316.73;;;14.27;33.02
76726;BME280;65651;53.154;17.916;2023-04-03T07:21:32;102318.32;;;14.94;32.72
76726;BME280;65651;53.154;17.916;2023-04-03T07:23:59;102332.04;;;13.77;32.52
76726;BME280;65651;53.154;17.916;2023-04-03T07:26:27;102343.26;;;12.83;32.04
76726;BME280;65651;53.154;17.916;2023-04-03T07:28:55;102341.33;;;12.45;32.29
76726;BME280;65651;53.154;17.916;2023-04-03T07:31:22;102338.69;;;13.26;31.91
76726;BME280;65651;53.154;17.916;2023-04-03T07:33:50;102338.73;;;14.43;30.94
76726;BME280;65651;53.154;17.916;2023-04-03T07:36:19;102341.39;;;13.44;31.08
76726;BME280;65651;53.154;17.916;2023-04-03T07:38:47;102347.84;;;12.98;31.24
76726;BME280;65651;53.154;17.916;2023-04-03T07:41:16;102352.80;;;11.29;31.81
76726;BME280;65651;53.154;17.916;2023-04-03T07:43:44;102354.01;;;10.84;31.85
76726;BME280;65651;53.154;17.916;2023-04-03T07:46:13;102352.20;;;10.41;32.13
76726;BME280;65651;53.154;17.916;2023-04-03T07:48:41;102353.62;;;9.98;32.66
76726;BME280;65651;53.154;17.916;2023-04-03T07:51:09;102355.91;;;9.39;32.86
76726;BME280;65651;53.154;17.916;2023-04-03T07:53:37;102353.86;;;8.79;33.51
76726;BME280;65651;53.154;17.916;2023-04-03T07:56:04;102349.45;;;8.48;33.94
76726;BME280;65651;53.154;17.916;2023-04-03T07:58:32;102356.77;;;7.98;34.24
76726;BME280;65651;53.154;17.916;2023-04-03T08:01:00;102363.21;;;7.09;34.40
76726;BME280;65651;53.154;17.916;2023-04-03T08:03:27;102363.33;;;6.79;34.71
76726;BME280;65651;53.154;17.916;2023-04-03T08:05:55;102353.67;;;7.11;34.73
76726;BME280;65651;53.154;17.916;2023-04-03T08:08:29;102354.63;;;7.69;34.61
76726;BME280;65651;53.154;17.916;2023-04-03T08:10:58;102353.34;;;7.79;34.75
76726;BME280;65651;53.154;17.916;2023-04-03T08:13:25;102364.88;;;8.37;34.48
76726;BME280;65651;53.154;17.916;2023-04-03T08:15:53;102354.77;;;10.97;32.84
76726;BME280;65651;53.154;17.916;2023-04-03T08:18:20;102353.02;;;13.38;31.95
76726;BME280;65651;53.154;17.916;2023-04-03T08:20:48;102357.02;;;15.44;30.45
76726;BME280;65651;53.154;17.916;2023-04-03T08:23:18;102349.17;;;16.74;28.55
76726;BME280;65651;53.154;17.916;2023-04-03T08:25:46;102346.20;;;17.36;27.59
76726;BME280;65651;53.154;17.916;2023-04-03T08:28:13;102345.84;;;18.30;27.10
76726;BME280;65651;53.154;17.916;2023-04-03T08:30:41;102345.96;;;18.57;26.11
76726;BME280;65651;53.154;17.916;2023-04-03T08:33:10;102347.30;;;19.41;25.32
76726;BME280;65651;53.154;17.916;2023-04-03T08:35:41;102346.41;;;19.77;24.57
76726;BME280;65651;53.154;17.916;2023-04-03T08:38:10;102350.80;;;19.70;24.07
76726;BME280;65651;53.154;17.916;2023-04-03T08:40:39;102347.86;;;20.48;23.38
76726;BME280;65651;53.154;17.916;2023-04-03T08:46:01;102349.26;;;21.06;22.25
76726;BME280;65651;53.154;17.916;2023-04-03T08:48:35;102345.09;;;20.52;21.55
76726;BME280;65651;53.154;17.916;2023-04-03T08:51:13;102344.42;;;21.20;20.89
76726;BME280;65651;53.154;17.916;2023-04-03T08:53:49;102341.11;;;21.70;20.56
76726;BME280;65651;53.154;17.916;2023-04-03T08:56:21;102341.96;;;21.68;20.20
76726;BME280;65651;53.154;17.916;2023-04-03T08:58:55;102335.92;;;21.64;19.77
76726;BME280;65651;53.154;17.916;2023-04-03T09:01:41;102331.95;;;21.95;19.69
76726;BME280;65651;53.154;17.916;2023-04-03T09:04:14;102329.58;;;22.29;19.44
76726;BME280;65651;53.154;17.916;2023-04-03T09:06:45;102328.52;;;22.88;19.29
76726;BME280;65651;53.154;17.916;2023-04-03T09:09:40;102327.41;;;23.65;19.25
76726;BME280;65651;53.154;17.916;2023-04-03T09:12:19;102328.67;;;24.12;18.40
76726;BME280;65651;53.154;17.916;2023-04-03T09:23:20;102344.43;;;16.53;20.42
76726;BME280;65651;53.154;17.916;2023-04-03T09:25:52;102347.55;;;16.12;20.76
76726;BME280;65651;53.154;17.916;2023-04-03T09:28:23;102351.55;;;14.26;21.69
76726;BME280;65651;53.154;17.916;2023-04-03T09:30:51;102345.64;;;14.38;21.86
76726;BME280;65651;53.154;17.916;2023-04-03T09:33:19;102338.87;;;16.56;21.31
76726;BME280;65651;53.154;17.916;2023-04-03T09:35:48;102338.88;;;18.28;20.74
76726;BME280;65651;53.154;17.916;2023-04-03T09:38:19;102331.55;;;19.34;20.03
76726;BME280;65651;53.154;17.916;2023-04-03T09:43:31;102348.08;;;18.31;19.32
76726;BME280;65651;53.154;17.916;2023-04-03T09:46:34;102353.65;;;15.69;20.46
76726;BME280;65651;53.154;17.916;2023-04-03T09:49:05;102353.03;;;16.16;20.69
76726;BME280;65651;53.154;17.916;2023-04-03T09:51:33;102350.80;;;17.20;20.39
76726;BME280;65651;53.154;17.916;2023-04-03T09:54:24;102344.56;;;18.05;20.22
76726;BME280;65651;53.154;17.916;2023-04-03T09:56:53;102336.14;;;19.28;20.26
76726;BME280;65651;53.154;17.916;2023-04-03T09:59:22;102341.38;;;19.35;19.64
76726;BME280;65651;53.154;17.916;2023-04-03T10:02:30;102342.02;;;16.62;20.51
76726;BME280;65651;53.154;17.916;2023-04-03T10:05:37;102338.59;;;14.03;21.74
76726;BME280;65651;53.154;17.916;2023-04-03T10:10:43;102360.80;;;11.59;23.82
76726;BME280;65651;53.154;17.916;2023-04-03T10:13:14;102369.38;;;10.45;24.93
76726;BME280;65651;53.154;17.916;2023-04-03T10:16:03;102370.96;;;9.19;25.80
76726;BME280;65651;53.154;17.916;2023-04-03T10:21:53;102357.39;;;7.80;27.79
76726;BME280;65651;53.154;17.916;2023-04-03T10:24:51;102360.64;;;7.70;28.55
76726;BME280;65651;53.154;17.916;2023-04-03T10:27:44;102364.96;;;7.40;28.67
76726;BME280;65651;53.154;17.916;2023-04-03T10:34:05;102344.13;;;7.29;29.57
76726;BME280;65651;53.154;17.916;2023-04-03T10:36:54;102356.56;;;6.99;29.89
76726;BME280;65651;53.154;17.916;2023-04-03T10:48:06;102359.90;;;6.70;32.05
76726;BME280;65651;53.154;17.916;2023-04-03T10:53:21;102362.87;;;6.02;32.91
76726;BME280;65651;53.154;17.916;2023-04-03T10:58:40;102360.65;;;5.70;33.25
76726;BME280;65651;53.154;17.916;2023-04-03T11:01:13;102352.73;;;5.83;33.31
76726;BME280;65651;53.154;17.916;2023-04-03T11:03:45;102359.86;;;6.02;33.20
76726;BME280;65651;53.154;17.916;2023-04-03T11:06:16;102351.52;;;6.16;33.32
76726;BME280;65651;53.154;17.916;2023-04-03T11:08:56;102350.23;;;6.35;33.72
76726;BME280;65651;53.154;17.916;2023-04-03T11:11:27;102352.13;;;6.29;33.46
76726;BME280;65651;53.154;17.916;2023-04-03T11:13:58;102363.35;;;6.15;33.70
76726;BME280;65651;53.154;17.916;2023-04-03T11:16:30;102351.75;;;5.93;33.61
76726;BME280;65651;53.154;17.916;2023-04-03T11:19:12;102347.00;;;5.72;34.19
76726;BME280;65651;53.154;17.916;2023-04-03T11:21:51;102340.11;;;5.67;34.21
76726;BME280;65651;53.154;17.916;2023-04-03T11:24:27;102333.50;;;5.79;34.23
76726;BME280;65651;53.154;17.916;2023-04-03T11:26:59;102335.42;;;5.87;34.05
76726;BME280;65651;53.154;17.916;2023-04-03T11:29:32;102337.82;;;5.78;33.93
76726;BME280;65651;53.154;17.916;2023-04-03T11:34:49;102333.42;;;5.69;34.10
76726;BME280;65651;53.154;17.916;2023-04-03T11:37:47;102328.01;;;5.82;34.31
76726;BME280;65651;53.154;17.916;2023-04-03T11:42:47;102325.15;;;5.94;34.75
76726;BME280;65651;53.154;17.916;2023-04-03T11:50:41;102328.85;;;6.09;35.32
76726;BME280;65651;53.154;17.916;2023-04-03T11:58:21;102322.42;;;6.24;35.22
76726;BME280;65651;53.154;17.916;2023-04-03T12:16:22;102309.27;;;6.69;35.36
76726;BME280;65651;53.154;17.916;2023-04-03T12:18:55;102315.88;;;6.62;34.91
76726;BME280;65651;53.154;17.916;2023-04-03T12:29:33;102314.29;;;5.86;35.32
76726;BME280;65651;53.154;17.916;2023-04-03T12:43:28;102301.89;;;6.25;35.36
76726;BME280;65651;53.154;17.916;2023-04-03T12:46:23;102310.06;;;6.18;35.67
76726;BME280;65651;53.154;17.916;2023-04-03T12:48:53;102303.52;;;6.10;35.87
76726;BME280;65651;53.154;17.916;2023-04-03T12:51:40;102304.63;;;6.05;35.79
76726;BME280;65651;53.154;17.916;2023-04-03T12:57:21;102293.02;;;6.16;35.77
76726;BME280;65651;53.154;17.916;2023-04-03T12:59:53;102281.46;;;6.37;35.77
76726;BME280;65651;53.154;17.916;2023-04-03T13:04:56;102295.75;;;6.71;35.81
76726;BME280;65651;53.154;17.916;2023-04-03T13:07:30;102302.76;;;6.50;35.81
76726;BME280;65651;53.154;17.916;2023-04-03T13:15:23;102304.46;;;5.82;35.93
76726;BME280;65651;53.154;17.916;2023-04-03T13:17:53;102304.97;;;5.72;35.83
76726;BME280;65651;53.154;17.916;2023-04-03T13:20:32;102295.35;;;5.76;35.74
76726;BME280;65651;53.154;17.916;2023-04-03T13:23:05;102288.66;;;5.85;35.74
76726;BME280;65651;53.154;17.916;2023-04-03T13:25:40;102293.77;;;5.94;35.41
76726;BME280;65651;53.154;17.916;2023-04-03T13:28:12;102282.70;;;5.90;35.36
76726;BME280;65651;53.154;17.916;2023-04-03T13:34:03;102277.69;;;6.24;35.73
76726;BME280;65651;53.154;17.916;2023-04-03T13:36:34;102274.11;;;6.28;36.01
76726;BME280;65651;53.154;17.916;2023-04-03T13:39:22;102274.81;;;6.24;35.89
76726;BME280;65651;53.154;17.916;2023-04-03T13:41:56;102284.52;;;6.08;35.73
76726;BME280;65651;53.154;17.916;2023-04-03T13:45:06;102281.32;;;5.86;36.13
76726;BME280;65651;53.154;17.916;2023-04-03T13:47:41;102281.16;;;5.78;36.46
76726;BME280;65651;53.154;17.916;2023-04-03T13:52:43;102282.61;;;5.88;36.58
76726;BME280;65651;53.154;17.916;2023-04-03T13:55:28;102274.01;;;5.82;36.60
76726;BME280;65651;53.154;17.916;2023-04-03T13:58:03;102281.08;;;5.80;36.98
76726;BME280;65651;53.154;17.916;2023-04-03T14:00:37;102278.89;;;5.73;37.39
76726;BME280;65651;53.154;17.916;2023-04-03T14:06:06;102280.77;;;5.49;37.83
76726;BME280;65651;53.154;17.916;2023-04-03T14:08:33;102275.14;;;5.28;38.13
76726;BME280;65651;53.154;17.916;2023-04-03T14:11:01;102269.63;;;5.20;38.29
76726;BME280;65651;53.154;17.916;2023-04-03T14:13:29;102265.91;;;5.24;38.29
76726;BME280;65651;53.154;17.916;2023-04-03T14:15:57;102264.51;;;5.42;38.60
76726;BME280;65651;53.154;17.916;2023-04-03T14:18:24;102257.62;;;5.67;38.54
76726;BME280;65651;53.154;17.916;2023-04-03T14:20:52;102264.69;;;5.83;38.60
76726;BME280;65651;53.154;17.916;2023-04-03T14:23:19;102270.33;;;5.74;38.57
76726;BME280;65651;53.154;17.916;2023-04-03T14:25:47;102269.30;;;5.54;38.80
76726;BME280;65651;53.154;17.916;2023-04-03T14:28:18;102277.33;;;5.31;39.47
76726;BME280;65651;53.154;17.916;2023-04-03T14:30:47;102282.16;;;5.11;40.08
76726;BME280;65651;53.154;17.916;2023-04-03T14:33:17;102286.70;;;4.89;40.96
76726;BME280;65651;53.154;17.916;2023-04-03T14:35:45;102282.87;;;4.71;41.34
76726;BME280;65651;53.154;17.916;2023-04-03T14:38:32;102284.87;;;4.67;41.86
76726;BME280;65651;53.154;17.916;2023-04-03T14:40:59;102282.07;;;4.69;41.75
76726;BME280;65651;53.154;17.916;2023-04-03T14:43:27;102278.86;;;4.78;41.68
76726;BME280;65651;53.154;17.916;2023-04-03T14:45:54;102272.95;;;4.86;41.84
76726;BME280;65651;53.154;17.916;2023-04-03T14:48:23;102277.66;;;4.93;41.96
76726;BME280;65651;53.154;17.916;2023-04-03T14:50:52;102274.75;;;4.86;41.93
76726;BME280;65651;53.154;17.916;2023-04-03T14:53:19;102274.66;;;4.76;41.96